PWSweather.com
Personal Weather Stations
Station Observations
KAZPHOEN90
RayThunderhill, Phoenix, AZ

RayThunderhillPhoenix, AZ

Lat: 33.312, Lon: -112.029

Elevation: 1260

Station Type: Davis Vantage VUE

Latest ConditionsUpdated 12:45:01 PM MST Wednesday, Jul 1, 2015
Currently Today's Max Today's Min Today's Average
Temperature 98.2°F36.8°C 98.2°F36.8°C 80.4°F26.9°C 87.9°F31.1°C
Dew Point 62.4°F16.9°C 68.0°F20.0°C 60.7°F15.9°C 65.2°F18.4°C
Winds 0.8 mph NW1.3 kmh NW 5.6 mph SSE9.0 kmh SSE - 1.0 mph 1.6 kmh
Wind Gusts 2.0 mph3.2 kmh 10.0 mph16.1 kmh - -
Humidity 31% 63% 30% 48%
Pressure 29.75 in1007.5 mb 29.80 in1009.1 mb 29.69 in1005.4 mb -
Hour Temp Dew Point Humidity Winds Wind Gusts Pressure Precip Precip Rate Daily Precip Total
12:45 PM 98.2°F36.8°C 62.4°F16.9°C 31% 0.8 mph NW1.3 kmh NW 2.0 mph3.2 kmh 29.75 in1007.5 mb - 0.00 in0.0 mm 0.00 in0.0 mm
12:30 PM 97.1°F36.2°C 61.4°F16.3°C 31% 2.1 mph NNW3.4 kmh NNW 5.0 mph8.0 kmh 29.75 in1007.5 mb - 0.00 in0.0 mm 0.00 in0.0 mm
12:15 PM 97.3°F36.3°C 60.7°F15.9°C 30% 4.2 mph NW6.8 kmh NW 7.0 mph11.3 kmh 29.76 in1007.8 mb - 0.00 in0.0 mm 0.00 in0.0 mm
12:00 PM 96.7°F35.9°C 61.1°F16.2°C 31% 0.6 mph WNW1.0 kmh WNW -- 29.76 in1007.8 mb - 0.00 in0.0 mm 0.00 in0.0 mm
11:45 AM 96.5°F35.8°C 60.9°F16.1°C 31% 2.2 mph WNW3.5 kmh WNW 5.0 mph8.0 kmh 29.77 in1008.1 mb - 0.00 in0.0 mm 0.00 in0.0 mm
11:30 AM 95.8°F35.4°C 62.1°F16.7°C 33% 1.5 mph W2.4 kmh W 3.0 mph4.8 kmh 29.76 in1007.8 mb - 0.00 in0.0 mm 0.00 in0.0 mm
11:15 AM 95.9°F35.5°C 62.2°F16.8°C 33% 1.4 mph WSW2.3 kmh WSW 4.0 mph6.4 kmh 29.78 in1008.5 mb - 0.00 in0.0 mm 0.00 in0.0 mm
11:00 AM 95.6°F35.3°C 62.8°F17.1°C 34% 0.6 mph WNW1.0 kmh WNW 1.0 mph1.6 kmh 29.78 in1008.5 mb - 0.00 in0.0 mm 0.00 in0.0 mm
10:45 AM 94.6°F34.8°C 62.7°F17.1°C 35% 1.7 mph SW2.7 kmh SW 5.0 mph8.0 kmh 29.77 in1008.1 mb - 0.00 in0.0 mm 0.00 in0.0 mm
10:30 AM 94.6°F34.8°C 62.7°F17.1°C 35% 1.3 mph W2.1 kmh W 2.0 mph3.2 kmh 29.78 in1008.5 mb - 0.00 in0.0 mm 0.00 in0.0 mm
10:15 AM 94.2°F34.6°C 63.1°F17.3°C 36% 0.3 mph WSW0.5 kmh WSW 1.0 mph1.6 kmh 29.78 in1008.5 mb - 0.00 in0.0 mm 0.00 in0.0 mm
10:00 AM 93.9°F34.4°C 65.2°F18.4°C 39% 0.2 mph WNW0.3 kmh WNW 1.0 mph1.6 kmh 29.78 in1008.5 mb - 0.00 in0.0 mm 0.00 in0.0 mm
09:45 AM 92.5°F33.6°C 65.4°F18.6°C 41% 2.2 mph S3.5 kmh S 4.0 mph6.4 kmh 29.78 in1008.5 mb - 0.00 in0.0 mm 0.00 in0.0 mm
09:30 AM 92.3°F33.5°C 65.2°F18.4°C 41% 1.8 mph SE2.9 kmh SE 5.0 mph8.0 kmh 29.79 in1008.8 mb - 0.00 in0.0 mm 0.00 in0.0 mm
09:15 AM 91.0°F32.8°C 64.7°F18.2°C 42% 1.2 mph WSW1.9 kmh WSW 3.0 mph4.8 kmh 29.79 in1008.8 mb - 0.00 in0.0 mm 0.00 in0.0 mm
09:00 AM 89.9°F32.2°C 67.0°F19.4°C 47% 0.7 mph SSE1.1 kmh SSE 2.0 mph3.2 kmh 29.79 in1008.8 mb - 0.00 in0.0 mm 0.00 in0.0 mm
08:45 AM 89.5°F31.9°C 67.2°F19.6°C 48% 0.2 mph WSW0.3 kmh WSW 1.0 mph1.6 kmh 29.79 in1008.8 mb - 0.00 in0.0 mm 0.00 in0.0 mm
08:30 AM 89.1°F31.7°C 67.4°F19.7°C 49% 0.3 mph SE0.5 kmh SE 2.0 mph3.2 kmh 29.80 in1009.1 mb - 0.00 in0.0 mm 0.00 in0.0 mm
08:15 AM 87.9°F31.1°C 67.5°F19.7°C 51% 0.3 mph S0.5 kmh S -- 29.80 in1009.1 mb - 0.00 in0.0 mm 0.00 in0.0 mm
08:00 AM 87.4°F30.8°C 67.1°F19.5°C 51% 0.1 mph SE0.2 kmh SE -- 29.80 in1009.1 mb - 0.00 in0.0 mm 0.00 in0.0 mm
07:45 AM 87.0°F30.6°C 67.3°F19.6°C 52% Calm Calm 1.0 mph1.6 kmh 29.79 in1008.8 mb - 0.00 in0.0 mm 0.00 in0.0 mm
07:30 AM 86.5°F30.3°C 66.8°F19.3°C 52% Calm Calm 1.0 mph1.6 kmh 29.80 in1009.1 mb - 0.00 in0.0 mm 0.00 in0.0 mm
07:15 AM 85.3°F29.6°C 66.8°F19.3°C 54% 0.1 mph SE0.2 kmh SE 1.0 mph1.6 kmh 29.79 in1008.8 mb - 0.00 in0.0 mm 0.00 in0.0 mm
07:00 AM 83.7°F28.7°C 66.9°F19.4°C 57% Calm Calm -- 29.79 in1008.8 mb - 0.00 in0.0 mm 0.00 in0.0 mm
06:45 AM 82.7°F28.2°C 66.9°F19.4°C 59% Calm Calm -- 29.80 in1009.1 mb - 0.00 in0.0 mm 0.00 in0.0 mm
06:30 AM 80.8°F27.1°C 66.6°F19.2°C 62% 0.1 mph SE0.2 kmh SE -- 29.79 in1008.8 mb - 0.00 in0.0 mm 0.00 in0.0 mm
06:15 AM 80.5°F26.9°C 66.3°F19.1°C 62% 0.1 mph SE0.2 kmh SE -- 29.79 in1008.8 mb - 0.00 in0.0 mm 0.00 in0.0 mm
06:00 AM 80.4°F26.9°C 66.6°F19.2°C 63% Calm Calm -- 29.79 in1008.8 mb - 0.00 in0.0 mm 0.00 in0.0 mm
05:45 AM 80.6°F27.0°C 66.3°F19.1°C 62% Calm Calm -- 29.78 in1008.5 mb - 0.00 in0.0 mm 0.00 in0.0 mm
05:30 AM 80.9°F27.2°C 66.7°F19.3°C 62% 0.4 mph SE0.6 kmh SE 2.0 mph3.2 kmh 29.78 in1008.5 mb - 0.00 in0.0 mm 0.00 in0.0 mm
05:15 AM 81.2°F27.3°C 66.9°F19.4°C 62% 0.4 mph SE0.6 kmh SE 2.0 mph3.2 kmh 29.77 in1008.1 mb - 0.00 in0.0 mm 0.00 in0.0 mm
05:00 AM 81.5°F27.5°C 66.8°F19.3°C 61% 1.9 mph SE3.1 kmh SE 3.0 mph4.8 kmh 29.77 in1008.1 mb - 0.00 in0.0 mm 0.00 in0.0 mm
04:45 AM 81.7°F27.6°C 66.9°F19.4°C 61% 0.8 mph S1.3 kmh S 1.0 mph1.6 kmh 29.77 in1008.1 mb - 0.00 in0.0 mm 0.00 in0.0 mm
04:30 AM 81.7°F27.6°C 66.9°F19.4°C 61% 0.2 mph SE0.3 kmh SE 1.0 mph1.6 kmh 29.77 in1008.1 mb - 0.00 in0.0 mm 0.00 in0.0 mm
04:15 AM 81.8°F27.7°C 66.6°F19.2°C 60% Calm Calm -- 29.77 in1008.1 mb - 0.00 in0.0 mm 0.00 in0.0 mm
04:00 AM 82.2°F27.9°C 66.9°F19.4°C 60% 0.3 mph SSE0.5 kmh SSE -- 29.77 in1008.1 mb - 0.00 in0.0 mm 0.00 in0.0 mm
03:45 AM 82.7°F28.2°C 66.9°F19.4°C 59% Calm Calm -- 29.77 in1008.1 mb - 0.00 in0.0 mm 0.00 in0.0 mm
03:30 AM 83.2°F28.4°C 67.4°F19.7°C 59% 0.6 mph SE1.0 kmh SE 1.0 mph1.6 kmh 29.77 in1008.1 mb - 0.00 in0.0 mm 0.00 in0.0 mm
03:15 AM 83.7°F28.7°C 67.3°F19.6°C 58% 0.2 mph ESE0.3 kmh ESE 1.0 mph1.6 kmh 29.76 in1007.8 mb - 0.00 in0.0 mm 0.00 in0.0 mm
03:00 AM 83.9°F28.8°C 67.5°F19.7°C 58% Calm Calm -- 29.77 in1008.1 mb - 0.00 in0.0 mm 0.00 in0.0 mm
02:45 AM 84.4°F29.1°C 68.0°F20.0°C 58% 0.8 mph E1.3 kmh E 2.0 mph3.2 kmh 29.75 in1007.5 mb - 0.00 in0.0 mm 0.00 in0.0 mm
02:30 AM 84.7°F29.3°C 67.8°F19.9°C 57% 0.6 mph ESE1.0 kmh ESE 2.0 mph3.2 kmh 29.76 in1007.8 mb - 0.00 in0.0 mm 0.00 in0.0 mm
02:15 AM 85.5°F29.7°C 67.5°F19.7°C 55% 0.2 mph ESE0.3 kmh ESE 3.0 mph4.8 kmh 29.74 in1007.1 mb - 0.00 in0.0 mm 0.00 in0.0 mm
02:00 AM 87.6°F30.9°C 63.6°F17.6°C 45% 2.0 mph SE3.2 kmh SE 4.0 mph6.4 kmh 29.73 in1006.8 mb - 0.00 in0.0 mm 0.00 in0.0 mm
01:45 AM 88.6°F31.4°C 63.2°F17.3°C 43% 0.4 mph SE0.6 kmh SE 1.0 mph1.6 kmh 29.72 in1006.4 mb - 0.00 in0.0 mm 0.00 in0.0 mm
01:30 AM 89.0°F31.7°C 62.9°F17.2°C 42% 2.2 mph SE3.5 kmh SE 4.0 mph6.4 kmh 29.71 in1006.1 mb - 0.00 in0.0 mm 0.00 in0.0 mm
01:15 AM 89.2°F31.8°C 62.4°F16.9°C 41% 1.3 mph SSW2.1 kmh SSW 5.0 mph8.0 kmh 29.71 in1006.1 mb - 0.00 in0.0 mm 0.00 in0.0 mm
01:00 AM 89.2°F31.8°C 62.4°F16.9°C 41% 2.1 mph S3.4 kmh S 3.0 mph4.8 kmh 29.71 in1006.1 mb - 0.00 in0.0 mm 0.00 in0.0 mm
12:45 AM 88.2°F31.2°C 63.5°F17.5°C 44% 3.3 mph SSW5.3 kmh SSW 9.0 mph14.5 kmh 29.70 in1005.8 mb - 0.00 in0.0 mm 0.00 in0.0 mm
12:30 AM 86.6°F30.3°C 64.6°F18.1°C 48% 0.6 mph E1.0 kmh E 1.0 mph1.6 kmh 29.70 in1005.8 mb - 0.00 in0.0 mm 0.00 in0.0 mm
12:15 AM 86.9°F30.5°C 64.8°F18.2°C 48% 1.5 mph S2.4 kmh S 3.0 mph4.8 kmh 29.69 in1005.4 mb - 0.00 in0.0 mm 0.00 in0.0 mm
12:00 AM 90.7°F32.6°C 64.4°F18.0°C 42% 5.6 mph SSE9.0 kmh SSE 10.0 mph16.1 kmh 29.69 in1005.4 mb - 0.00 in0.0 mm 0.00 in0.0 mm